createdAt,value
2018-08-02T00:02:27.396Z,21.0
2018-08-02T00:07:27.472Z,20.8
2018-08-02T00:12:27.371Z,21.0
2018-08-02T00:17:28.082Z,21.2
2018-08-02T00:22:27.734Z,21.2
2018-08-02T00:27:27.763Z,21.3
2018-08-02T00:32:27.937Z,21.3
2018-08-02T00:37:27.433Z,21.4
2018-08-02T00:42:27.562Z,21.5
2018-08-02T00:47:27.794Z,21.5
2018-08-02T00:52:27.483Z,21.4
2018-08-02T00:57:27.603Z,21.4
2018-08-02T01:02:27.507Z,21.2
2018-08-02T01:07:27.669Z,21.0
2018-08-02T01:12:27.409Z,20.9
2018-08-02T01:17:27.976Z,20.9
2018-08-02T01:22:27.184Z,20.9
2018-08-02T01:27:27.482Z,20.9
2018-08-02T01:32:27.831Z,20.7
2018-08-02T01:37:27.291Z,20.6
2018-08-02T01:42:27.849Z,20.8
2018-08-02T01:47:27.865Z,20.9
2018-08-02T01:52:28.095Z,20.8
2018-08-02T01:57:28.126Z,20.8
2018-08-02T02:02:27.954Z,20.9
2018-08-02T02:07:27.355Z,20.7
2018-08-02T02:12:27.058Z,20.7
2018-08-02T02:17:27.528Z,20.6
2018-08-02T02:22:28.067Z,20.5
2018-08-02T02:27:28.598Z,20.7
2018-08-02T02:32:28.036Z,20.6
2018-08-02T02:37:28.106Z,20.8
2018-08-02T02:42:27.716Z,20.8
2018-08-02T02:47:28.001Z,20.8
2018-08-02T02:52:27.425Z,20.9
2018-08-02T02:57:28.450Z,21.0
2018-08-02T03:02:27.869Z,21.2
2018-08-02T03:07:28.521Z,21.3
2018-08-02T03:12:26.828Z,21.2
2018-08-02T03:17:27.725Z,21.3
2018-08-02T03:22:28.212Z,21.3
2018-08-02T03:27:28.841Z,21.4
2018-08-02T03:32:28.034Z,21.4
2018-08-02T03:37:28.906Z,21.5
2018-08-02T03:42:29.171Z,21.5
2018-08-02T03:47:27.802Z,21.5
2018-08-02T03:52:27.970Z,21.6
2018-08-02T03:57:28.635Z,21.4
2018-08-02T04:02:28.042Z,21.4
2018-08-02T04:07:27.982Z,21.3
2018-08-02T04:12:29.463Z,21.2
2018-08-02T04:17:29.348Z,21.3
2018-08-02T04:22:28.053Z,21.4
2018-08-02T04:27:28.258Z,21.3
2018-08-02T04:32:28.085Z,21.4
2018-08-02T04:37:28.687Z,21.4
2018-08-02T04:42:28.635Z,21.5
2018-08-02T04:47:28.021Z,21.6
2018-08-02T04:52:27.894Z,21.7
2018-08-02T04:57:28.350Z,21.7
2018-08-02T05:02:28.095Z,21.6
2018-08-02T05:07:28.525Z,21.5
2018-08-02T05:12:27.621Z,21.4
2018-08-02T05:17:28.344Z,21.4
2018-08-02T05:22:28.821Z,21.5
2018-08-02T05:27:28.210Z,21.6
2018-08-02T05:32:28.206Z,21.6
2018-08-02T05:37:28.181Z,21.4
2018-08-02T05:42:28.879Z,21.3
2018-08-02T05:47:28.403Z,21.5
2018-08-02T05:52:27.278Z,21.6
2018-08-02T05:57:28.626Z,22.2
2018-08-02T06:02:28.364Z,22.6
2018-08-02T06:07:28.255Z,23.2
2018-08-02T06:12:28.157Z,23.1
2018-08-02T06:17:27.868Z,23.1
2018-08-02T06:22:27.715Z,23.0
2018-08-02T06:27:27.904Z,22.9
2018-08-02T06:32:27.932Z,22.9
2018-08-02T06:37:27.818Z,23.0
2018-08-02T06:42:28.421Z,23.0
2018-08-02T06:47:27.951Z,23.1
2018-08-02T06:52:28.299Z,23.5
2018-08-02T06:57:28.078Z,23.9
2018-08-02T07:02:28.033Z,23.8
2018-08-02T07:07:28.730Z,24.3
2018-08-02T07:12:27.853Z,24.4
2018-08-02T07:17:28.366Z,24.3
2018-08-02T07:22:28.274Z,24.9
2018-08-02T07:27:28.023Z,25.8
2018-08-02T07:32:28.682Z,25.8
2018-08-02T07:37:27.589Z,26.1
2018-08-02T07:42:28.046Z,26.4
2018-08-02T07:47:29.319Z,26.7
2018-08-02T07:52:28.228Z,27.0
2018-08-02T07:57:29.456Z,27.2
2018-08-02T08:02:28.192Z,27.5
2018-08-02T08:07:28.486Z,28.0
2018-08-02T08:12:28.032Z,28.0
2018-08-02T08:17:28.647Z,28.3
2018-08-02T08:22:28.229Z,28.7
2018-08-02T08:27:28.140Z,28.7
2018-08-02T08:32:28.325Z,28.9
2018-08-02T08:37:28.251Z,29.4
2018-08-02T08:42:28.223Z,29.4
2018-08-02T08:47:28.402Z,29.7
2018-08-02T08:52:28.550Z,29.7
2018-08-02T08:57:27.769Z,29.4
2018-08-02T09:02:27.811Z,29.0
2018-08-02T09:07:28.082Z,28.9
2018-08-02T09:12:28.268Z,28.8
2018-08-02T09:17:28.747Z,28.8
2018-08-02T09:22:28.193Z,28.8
2018-08-02T09:27:28.493Z,28.9
2018-08-02T09:32:28.465Z,28.9
2018-08-02T09:37:28.706Z,28.9
2018-08-02T09:42:27.845Z,29.0
2018-08-02T09:47:28.898Z,29.1
2018-08-02T09:52:29.251Z,29.6
2018-08-02T09:57:28.197Z,30.0
2018-08-02T10:02:27.862Z,30.2
2018-08-02T10:07:28.258Z,30.3
2018-08-02T10:12:28.499Z,30.6
2018-08-02T10:17:28.574Z,30.9
2018-08-02T10:22:28.433Z,31.4
2018-08-02T10:27:27.690Z,31.9
2018-08-02T10:32:28.145Z,32.0
2018-08-02T10:37:28.269Z,31.9
2018-08-02T10:42:27.779Z,32.4
2018-08-02T10:47:29.007Z,32.4
2018-08-02T10:52:28.223Z,32.6
2018-08-02T10:57:28.568Z,32.8
2018-08-02T11:02:28.644Z,33.4
2018-08-02T11:07:27.968Z,33.4
2018-08-02T11:12:28.606Z,33.7
2018-08-02T11:17:28.558Z,34.0
2018-08-02T11:22:27.865Z,34.3
2018-08-02T11:27:28.107Z,34.5
2018-08-02T11:32:28.217Z,34.5
2018-08-02T11:37:28.710Z,34.1
2018-08-02T11:42:27.382Z,34.2
2018-08-02T11:47:28.044Z,34.0
2018-08-02T11:52:27.733Z,34.8
2018-08-02T11:57:28.133Z,34.7
2018-08-02T12:02:28.106Z,35.1
2018-08-02T12:07:28.829Z,34.9
2018-08-02T12:12:27.685Z,34.9
2018-08-02T12:17:28.423Z,35.3
2018-08-02T12:22:28.064Z,35.3
2018-08-02T12:27:28.500Z,36.1
2018-08-02T12:32:28.077Z,36.1
2018-08-02T12:37:28.591Z,36.5
2018-08-02T12:42:27.682Z,36.3
2018-08-02T12:47:29.294Z,35.7
2018-08-02T12:52:28.029Z,35.3
2018-08-02T12:57:29.105Z,35.3
2018-08-02T13:02:28.384Z,35.7
2018-08-02T13:07:27.849Z,35.7
2018-08-02T13:12:28.588Z,35.7
2018-08-02T13:17:28.841Z,35.9
2018-08-02T13:22:28.326Z,35.9
2018-08-02T13:27:28.253Z,35.7
2018-08-02T13:32:28.402Z,35.7
2018-08-02T13:37:28.640Z,36.0
2018-08-02T13:42:29.118Z,36.0
2018-08-02T13:47:28.390Z,36.1
2018-08-02T13:52:27.729Z,36.1
2018-08-02T13:57:28.288Z,36.3
2018-08-02T14:02:28.156Z,37.9
2018-08-02T14:07:28.622Z,37.9
2018-08-02T14:12:28.462Z,38.1
2018-08-02T14:17:28.932Z,37.7
2018-08-02T14:22:28.949Z,38.0
2018-08-02T14:27:28.628Z,38.1
2018-08-02T14:32:29.485Z,38.1
2018-08-02T14:37:27.407Z,38.4
2018-08-02T14:42:28.313Z,39.0
2018-08-02T14:47:28.045Z,40.1
2018-08-02T14:52:28.311Z,40.9
2018-08-02T14:57:27.550Z,41.5
2018-08-02T15:02:28.869Z,42.8
2018-08-02T15:07:27.964Z,44.0
2018-08-02T15:12:27.698Z,45.4
2018-08-02T15:17:27.999Z,46.5
2018-08-02T15:22:28.208Z,47.8
2018-08-02T15:27:27.653Z,48.6
2018-08-02T15:32:28.309Z,49.4
2018-08-02T15:37:28.179Z,49.9
2018-08-02T15:42:27.238Z,50.6
2018-08-02T15:47:28.417Z,50.5
2018-08-02T15:52:28.600Z,52.0
2018-08-02T15:57:27.802Z,52.7
2018-08-02T16:02:27.995Z,52.0
2018-08-02T16:07:28.023Z,51.6
2018-08-02T16:12:27.522Z,52.8
2018-08-02T16:17:27.463Z,52.8
2018-08-02T16:22:28.111Z,54.1
2018-08-02T16:27:27.494Z,55.2
2018-08-02T16:32:28.165Z,55.1
2018-08-02T16:37:28.126Z,55.5
2018-08-02T16:42:28.365Z,53.9
2018-08-02T16:47:29.310Z,53.9
2018-08-02T16:52:28.025Z,53.3
2018-08-02T16:57:28.617Z,52.9
2018-08-02T17:02:28.673Z,52.5
2018-08-02T17:07:28.189Z,51.3
2018-08-02T17:12:27.793Z,49.9
2018-08-02T17:17:28.223Z,50.2
2018-08-02T17:22:28.105Z,50.1
2018-08-02T17:27:27.572Z,49.6
2018-08-02T17:32:27.988Z,48.7
2018-08-02T17:37:28.081Z,48.1
2018-08-02T17:42:28.307Z,47.3
2018-08-02T17:47:28.130Z,47.2
2018-08-02T17:52:28.201Z,46.3
2018-08-02T17:57:28.078Z,44.8
2018-08-02T18:02:28.665Z,44.8
2018-08-02T18:07:28.857Z,42.5
2018-08-02T18:12:27.563Z,39.1
2018-08-02T18:17:27.994Z,37.0
2018-08-02T18:22:28.102Z,35.6
2018-08-02T18:27:29.082Z,34.5
2018-08-02T18:32:27.834Z,33.7
2018-08-02T18:37:28.904Z,33.2
2018-08-02T18:42:28.309Z,32.7
2018-08-02T18:47:56.800Z,32.3
2018-08-02T18:52:27.953Z,31.9
2018-08-02T18:57:27.474Z,31.5
2018-08-02T19:02:28.625Z,31.0
2018-08-02T19:07:27.740Z,30.7
2018-08-02T19:12:27.837Z,30.4
2018-08-02T19:17:29.294Z,29.9
2018-08-02T19:22:28.002Z,29.9
2018-08-02T19:27:27.584Z,29.7
2018-08-02T19:32:28.021Z,29.6
2018-08-02T19:37:27.711Z,29.4
2018-08-02T19:42:27.162Z,29.3
2018-08-02T19:47:27.989Z,29.1
2018-08-02T19:52:28.349Z,28.6
2018-08-02T19:57:27.928Z,28.3
2018-08-02T20:02:27.873Z,27.9
2018-08-02T20:07:28.750Z,27.7
2018-08-02T20:12:27.902Z,27.5
2018-08-02T20:17:27.966Z,27.3
2018-08-02T20:22:27.882Z,27.1
2018-08-02T20:27:28.258Z,27.0
2018-08-02T20:32:28.319Z,26.9
2018-08-02T20:37:28.044Z,26.9
2018-08-02T20:42:29.263Z,26.9
2018-08-02T20:47:28.135Z,26.8
2018-08-02T20:52:27.263Z,26.7
2018-08-02T20:57:28.184Z,26.4
2018-08-02T21:02:27.167Z,26.3
2018-08-02T21:07:28.382Z,26.2
2018-08-02T21:12:27.794Z,26.0
2018-08-02T21:17:28.293Z,25.7
2018-08-02T21:22:27.682Z,25.7
2018-08-02T21:27:28.358Z,25.7
2018-08-02T21:32:28.021Z,25.6
2018-08-02T21:37:27.966Z,25.2
2018-08-02T21:42:28.288Z,24.9
2018-08-02T21:47:28.152Z,24.7
2018-08-02T21:52:29.004Z,24.7
2018-08-02T21:57:26.732Z,24.7
2018-08-02T22:02:27.210Z,24.7
2018-08-02T22:07:28.703Z,24.7
2018-08-02T22:12:28.102Z,24.7
2018-08-02T22:22:40.417Z,24.6
2018-08-02T22:27:40.738Z,24.6
2018-08-02T22:32:40.437Z,24.6
2018-08-02T22:37:39.601Z,24.5
2018-08-02T22:42:40.096Z,24.4
2018-08-02T22:47:39.644Z,24.4
2018-08-02T22:52:40.065Z,24.4
2018-08-02T22:57:39.848Z,24.3
2018-08-02T23:02:40.170Z,24.3
2018-08-02T23:07:40.208Z,24.1
2018-08-02T23:12:26.925Z,24.1
2018-08-02T23:17:28.146Z,24.0
2018-08-02T23:22:27.237Z,23.9
2018-08-02T23:27:27.610Z,23.8
2018-08-02T23:32:27.870Z,23.8
2018-08-02T23:37:27.503Z,23.7
2018-08-02T23:42:26.770Z,23.7
2018-08-02T23:47:26.664Z,23.7
2018-08-02T23:52:27.036Z,23.7
2018-08-02T23:57:27.137Z,23.6
